South Armidale Weather

South Armidale Weather


Today's Observations
Date Time Temperature Humidity Dewpoint Wind Speed High Gust Wind Bearing Rainfall Rate Total Rainfall Pressure Gust Wind Chill Heat Index UV Index
23/02/18 11:18 24.9 61 16.9 4.7 9.7 127 34.8 0.0 1016.0 4.0 24.9 24.9 0.0
23/02/18 11:17 24.9 60 16.6 5.4 9.7 128 34.8 0.0 1016.0 9.7 25.0 24.9 0.0
23/02/18 11:16 25.0 60 16.7 3.2 9.7 138 34.8 0.0 1016.0 6.5 25.0 25.0 0.0
23/02/18 11:15 25.0 60 16.7 4.0 9.7 134 34.8 0.0 1016.0 5.0 25.0 25.0 0.0
23/02/18 11:14 25.0 59 16.4 4.3 9.7 131 34.8 0.0 1016.0 4.7 25.0 25.0 0.0
23/02/18 11:13 25.1 59 16.5 5.0 9.7 128 34.8 0.0 1016.0 5.4 25.1 25.1 0.0
23/02/18 11:12 25.2 59 16.6 5.4 9.7 129 34.8 0.0 1016.0 5.0 25.2 25.2 0.0
23/02/18 11:11 25.3 60 17.0 5.4 16.9 129 34.8 0.0 1016.0 6.1 25.3 25.3 0.0
23/02/18 11:10 25.4 60 17.1 3.2 16.9 124 34.8 0.0 1016.0 6.8 25.5 25.4 0.0
23/02/18 11:09 25.5 60 17.2 5.0 16.9 124 34.8 0.0 1016.0 3.6 25.3 25.5 0.0
23/02/18 11:08 25.3 60 17.0 4.0 16.9 127 34.8 0.0 1016.0 7.6 25.3 25.3 0.0
23/02/18 11:07 25.3 59 16.7 4.7 16.9 130 34.8 0.0 1016.0 5.4 25.3 25.3 0.0
23/02/18 11:06 25.3 59 16.7 6.8 16.9 129 34.8 0.0 1016.0 3.6 25.3 25.3 0.0
23/02/18 11:05 25.4 59 16.8 5.8 16.9 135 34.8 0.0 1016.0 5.8 25.4 25.4 0.0
23/02/18 11:04 25.5 60 17.2 4.0 16.9 139 34.8 0.0 1016.0 4.7 25.5 25.5 0.0
23/02/18 11:03 25.4 60 17.1 5.0 16.9 139 34.8 0.0 1016.0 6.8 25.4 25.4 0.0
23/02/18 11:02 25.3 60 17.0 6.8 16.9 135 34.8 0.0 1016.0 4.7 25.5 25.3 0.0
23/02/18 10:01 25.5 62 17.7 4.0 6.1 137 34.8 0.0 1016.0 5.4 25.5 25.5 0.0
23/02/18 10:00 25.3 62 17.5 4.0 6.1 137 34.8 0.0 1016.0 3.6 25.3 25.3 0.0
23/02/18 10:00 22.5 74 17.6 4.0 6.5 140 0.0 0.0 1017.0 1.4 22.5 22.5 0.0
23/02/18 09:59 22.5 75 17.8 4.0 6.5 141 0.0 0.0 1017.0 1.4 22.3 22.5 0.0
23/02/18 09:58 22.3 74 17.4 4.0 6.5 138 0.0 0.0 1017.0 1.4 22.3 22.3 0.0
23/02/18 09:57 22.2 73 17.1 4.0 6.5 139 0.0 0.0 1017.0 4.3 22.2 22.2 0.0
23/02/18 09:56 22.3 74 17.4 4.3 6.5 141 0.0 0.0 1017.0 6.1 22.3 22.3 0.0
23/02/18 09:55 22.4 75 17.7 1.4 6.5 140 0.0 0.0 1017.0 2.2 22.3 22.4 0.0
23/02/18 09:54 22.3 75 17.7 2.5 6.5 135 0.0 0.0 1017.0 0.0 22.3 22.3 0.0
23/02/18 09:53 22.1 75 17.5 5.0 6.5 137 0.0 0.0 1017.0 2.5 22.0 22.1 0.0
23/02/18 09:52 21.9 77 17.7 2.5 6.5 137 0.0 0.0 1017.0 4.7 21.9 21.9 0.0
23/02/18 09:51 21.8 77 17.6 1.8 6.5 129 0.0 0.0 1017.0 2.2 21.8 21.8 0.0
23/02/18 09:50 21.7 77 17.5 3.2 6.5 110 0.0 0.0 1017.0 1.4 21.7 21.7 0.0
23/02/18 09:49 21.6 76 17.2 4.0 10.8 115 0.0 0.0 1017.0 3.2 21.6 21.6 0.0
23/02/18 09:48 21.5 77 17.3 4.3 10.8 116 0.0 0.0 1017.0 4.0 21.5 21.5 0.0
23/02/18 09:47 21.4 77 17.2 2.2 10.8 115 0.0 0.0 1017.0 3.6 21.4 21.4 0.0
23/02/18 09:46 21.3 77 17.1 3.2 10.8 119 0.0 0.0 1017.0 2.2 21.2 21.3 0.0
23/02/18 09:45 21.1 77 16.9 4.3 10.8 119 0.0 0.0 1017.0 3.6 21.1 21.1 0.0
23/02/18 09:44 21.1 77 16.9 5.8 10.8 125 0.0 0.0 1017.0 4.3 21.1 21.1 0.0
23/02/18 09:43 21.0 78 17.0 4.0 10.8 123 0.0 0.0 1017.0 5.4 21.0 21.0 0.0
23/02/18 09:42 21.0 78 17.0 2.5 10.8 122 0.0 0.0 1017.0 4.0 21.0 21.0 0.0
23/02/18 09:41 20.9 78 16.9 4.7 10.8 127 0.0 0.0 1017.0 4.0 20.9 20.9 0.0
23/02/18 09:40 20.9 78 16.9 6.1 10.8 135 0.0 0.0 1017.0 5.0 20.9 20.9 0.0
23/02/18 09:39 21.0 78 17.0 1.4 10.8 135 0.0 0.0 1017.0 10.8 21.0 21.0 0.0
23/02/18 09:38 21.0 79 17.2 2.2 9.0 135 0.0 0.0 1017.0 2.2 20.9 21.0 0.0
23/02/18 09:37 20.8 79 17.0 3.2 9.0 133 0.0 0.0 1017.0 3.2 20.8 20.8 0.0
23/02/18 09:36 20.7 79 16.9 2.2 9.0 129 0.0 0.0 1017.0 3.2 20.7 20.7 0.0
23/02/18 09:35 20.6 79 16.8 4.7 9.0 125 0.0 0.0 1017.0 9.0 20.6 20.6 0.0
23/02/18 09:34 20.6 79 16.8 2.5 6.5 116 0.0 0.0 1017.0 5.0 20.6 20.6 0.0
23/02/18 09:33 20.6 79 16.8 1.8 6.5 115 0.0 0.0 1017.0 1.8 20.6 20.6 0.0
23/02/18 09:32 20.6 79 16.8 1.8 6.5 116 0.0 0.0 1017.0 1.8 20.6 20.6 0.0
23/02/18 09:31 20.6 79 16.8 3.2 6.5 115 0.0 0.0 1017.0 2.5 20.6 20.6 0.0
23/02/18 09:30 20.7 79 16.9 4.3 6.5 115 0.0 0.0 1017.0 3.6 20.7 20.7 0.0
23/02/18 09:29 20.6 79 16.8 4.7 6.5 112 0.0 0.0 1017.0 4.3 20.6 20.6 0.0
23/02/18 09:28 20.6 80 17.0 1.8 6.5 112 0.0 0.0 1017.0 6.1 20.6 20.6 0.0
23/02/18 09:27 20.5 79 16.7 4.3 6.5 114 0.0 0.0 1017.0 4.0 20.5 20.5 0.0
23/02/18 09:26 20.5 79 16.7 4.3 6.5 122 0.0 0.0 1017.0 6.5 20.5 20.5 0.0
23/02/18 09:25 20.5 80 16.9 3.6 5.8 119 0.0 0.0 1017.0 1.8 20.5 20.5 0.0
23/02/18 09:24 20.5 80 16.9 1.8 5.8 130 0.0 0.0 1017.0 2.2 20.6 20.5 0.0
23/02/18 09:23 20.6 80 17.0 1.8 5.8 135 0.0 0.0 1017.0 5.8 20.6 20.6 0.0
23/02/18 09:22 20.5 81 17.1 2.5 5.4 135 0.0 0.0 1017.0 2.2 20.6 20.5 0.0
23/02/18 09:21 20.6 81 17.2 2.5 5.4 135 0.0 0.0 1017.0 2.2 20.6 20.6 0.0
23/02/18 09:20 20.6 81 17.2 1.8 6.1 129 0.0 0.0 1017.0 5.0 20.7 20.6 0.0
23/02/18 09:19 20.7 82 17.5 1.8 6.1 125 0.0 0.0 1017.0 5.0 20.6 20.7 0.0
23/02/18 09:18 20.6 81 17.2 1.8 6.1 123 0.0 0.0 1017.0 5.0 20.5 20.6 0.0
23/02/18 09:17 20.5 82 17.3 1.8 6.1 124 0.0 0.0 1017.0 5.0 20.5 20.5 0.0
23/02/18 09:16 20.5 81 17.1 1.8 6.1 125 0.0 0.0 1017.0 5.0 20.4 20.5 0.0
23/02/18 09:15 20.4 81 17.0 1.8 9.0 128 0.0 0.0 1017.0 5.0 20.4 20.4 0.0
23/02/18 09:14 20.3 82 17.1 1.8 9.0 132 0.0 0.0 1017.0 5.0 20.3 20.3 0.0
23/02/18 09:13 20.3 82 17.1 1.4 9.0 136 0.0 0.0 1017.0 5.4 20.2 20.3 0.0
23/02/18 09:12 20.2 82 17.0 1.4 9.0 136 0.0 0.0 1017.0 5.4 20.1 20.2 0.0
23/02/18 09:11 20.1 83 17.1 1.4 9.0 136 0.0 0.0 1017.0 6.1 20.1 20.1 0.0
23/02/18 09:10 20.0 83 17.0 2.5 9.0 141 0.0 0.0 1017.0 3.2 19.9 20.0 0.0
23/02/18 09:09 19.9 83 16.9 2.5 9.0 146 0.0 0.0 1017.0 3.2 19.9 19.9 0.0
23/02/18 09:08 19.9 83 16.9 2.5 9.0 155 0.0 0.0 1017.0 1.8 19.8 19.9 0.0
23/02/18 09:07 19.8 83 16.8 2.5 9.0 150 0.0 0.0 1016.0 1.8 19.7 19.8 0.0
23/02/18 09:06 19.7 83 16.7 2.5 9.0 147 0.0 0.0 1016.0 1.8 19.7 19.7 0.0
23/02/18 09:05 19.7 83 16.7 4.3 9.0 146 0.0 0.0 1016.0 9.0 19.7 19.7 0.0
23/02/18 09:04 19.7 84 16.9 2.2 2.5 171 0.0 0.0 1016.0 2.5 19.7 19.7 0.0
23/02/18 09:03 19.7 84 16.9 1.8 2.5 155 0.0 0.0 1016.0 2.2 19.6 19.7 0.0
23/02/18 09:02 19.6 83 16.6 5.0 6.1 135 0.0 0.0 1016.0 2.5 0.0 19.6 0.0
23/02/18 08:56 19.5 85 16.9 2.2 6.1 135 0.0 0.0 1016.0 2.2 19.5 19.5 0.0
23/02/18 08:55 19.5 86 17.1 2.2 6.1 135 0.0 0.0 1016.0 2.2 19.4 19.5 0.0
23/02/18 08:54 19.4 86 17.0 2.2 6.1 135 0.0 0.0 1016.0 2.2 19.4 19.4 0.0
23/02/18 08:53 19.4 86 17.0 2.2 6.1 135 0.0 0.0 1016.0 2.2 19.2 19.4 0.0
23/02/18 08:52 19.2 86 16.8 4.7 6.1 135 0.0 0.0 1017.0 6.1 19.1 19.2 0.0
23/02/18 08:51 19.1 85 16.5 4.7 6.1 135 0.0 0.0 1017.0 6.1 19.1 19.1 0.0
23/02/18 08:50 19.1 86 16.7 4.7 6.1 135 0.0 0.0 1017.0 6.1 19.1 19.1 0.0
23/02/18 08:49 19.1 85 16.5 4.7 6.1 135 0.0 0.0 1017.0 6.1 19.1 19.1 0.0
23/02/18 08:48 19.1 86 16.7 4.7 6.1 135 0.0 0.0 1017.0 6.1 19.1 19.1 0.0
23/02/18 08:47 19.0 87 16.8 1.8 4.0 135 0.0 0.0 1017.0 4.0 19.0 19.0 0.0
23/02/18 08:46 19.0 88 17.0 1.8 4.0 135 0.0 0.0 1017.0 4.0 18.9 19.0 0.0
23/02/18 08:45 18.9 88 16.9 1.8 4.0 135 0.0 0.0 1017.0 4.0 18.8 18.9 0.0
23/02/18 08:44 18.7 88 16.7 1.8 4.0 135 0.0 0.0 1017.0 4.0 18.7 18.7 0.0
23/02/18 08:43 18.7 88 16.7 1.8 4.0 135 0.0 0.0 1017.0 4.0 18.6 18.7 0.0
23/02/18 08:42 18.6 88 16.6 1.8 4.0 135 0.0 0.0 1017.0 4.0 18.5 18.6 0.0
23/02/18 08:41 18.5 88 16.5 1.8 4.0 135 0.0 0.0 1017.0 4.0 18.4 18.5 0.0
23/02/18 08:40 18.4 88 16.4 1.8 4.0 135 0.0 0.0 1017.0 4.0 18.4 18.4 0.0
23/02/18 08:39 18.4 88 16.4 1.8 4.0 135 0.0 0.0 1017.0 4.0 18.3 18.4 0.0
23/02/18 08:38 18.3 88 16.3 1.8 4.0 135 0.0 0.0 1017.0 4.0 18.3 18.3 0.0
23/02/18 08:37 18.2 88 16.2 1.8 4.0 135 0.0 0.0 1016.0 4.0 18.2 18.2 0.0
23/02/18 08:36 18.2 88 16.2 0.0 0.0 0 0.0 0.0 1016.0 0.0 0.0 18.2 0.0
23/02/18 08:35 18.2 88 16.2 0.0 0.0 0 0.0 0.0 1016.0 0.0 0.0 18.2 0.0
23/02/18 08:34 18.2 88 16.2 0.0 0.0 0 0.0 0.0 1016.0 0.0 0.0 18.2 0.0
23/02/18 08:33 18.3 89 16.5 0.0 0.0 0 0.0 0.0 1016.0 0.0 0.0 18.3 0.0
23/02/18 08:32 18.3 89 16.5 0.0 0.0 0 0.0 0.0 1016.0 0.0 0.0 18.3 0.0
23/02/18 08:31 18.3 89 16.5 0.0 0.0 0 0.0 0.0 1016.0 0.0 0.0 18.3 0.0
23/02/18 08:30 18.3 89 16.5 0.0 0.0 0 0.0 0.0 1016.0 0.0 0.0 18.3 0.0
23/02/18 08:29 18.3 89 16.5 0.0 0.0 0 0.0 0.0 1016.0 0.0 0.0 18.3 0.0
23/02/18 08:28 18.3 89 16.5 0.0 0.0 0 0.0 0.0 1016.0 0.0 0.0 18.3 0.0
23/02/18 08:27 18.3 89 16.5 0.0 0.0 0 0.0 0.0 1016.0 0.0 0.0 18.3 0.0
23/02/18 08:26 18.3 89 16.5 0.0 0.0 0 0.0 0.0 1016.0 0.0 0.0 18.3 0.0
23/02/18 08:25 18.3 89 16.5 0.0 0.0 0 0.0 0.0 1016.0 0.0 0.0 18.3 0.0
23/02/18 08:24 18.4 90 16.7 0.0 0.0 0 0.0 0.0 1016.0 0.0 0.0 18.4 0.0
23/02/18 08:23 18.3 90 16.6 0.0 0.0 0 0.0 0.0 1016.0 0.0 0.0 18.3 0.0
23/02/18 08:22 18.2 90 16.5 0.0 0.0 0 0.0 0.0 1016.0 0.0 0.0 18.2 0.0
23/02/18 08:21 18.2 90 16.5 0.0 0.0 0 0.0 0.0 1016.0 0.0 0.0 18.2 0.0
23/02/18 08:20 18.1 90 16.4 0.0 0.0 0 0.0 0.0 1016.0 0.0 0.0 18.1 0.0
23/02/18 08:19 18.1 90 16.4 0.0 0.0 0 0.0 0.0 1016.0 0.0 0.0 18.1 0.0
23/02/18 08:18 18.1 90 16.4 0.0 0.0 0 0.0 0.0 1016.0 0.0 0.0 18.1 0.0
23/02/18 08:17 18.1 90 16.4 0.0 0.0 0 0.0 0.0 1016.0 0.0 0.0 18.1 0.0
23/02/18 08:16 18.2 90 16.5 0.0 0.0 0 0.0 0.0 1016.0 0.0 0.0 18.2 0.0
23/02/18 08:15 18.2 90 16.5 0.0 0.0 0 0.0 0.0 1016.0 0.0 0.0 18.2 0.0
23/02/18 08:14 18.1 91 16.6 0.0 0.0 0 0.0 0.0 1016.0 0.0 0.0 18.1 0.0
23/02/18 08:13 18.1 91 16.6 0.0 0.0 0 0.0 0.0 1016.0 0.0 0.0 18.1 0.0
23/02/18 08:12 18.1 91 16.6 0.0 0.0 0 0.0 0.0 1016.0 0.0 0.0 18.1 0.0
23/02/18 08:11 18.0 91 16.5 0.0 0.0 0 0.0 0.0 1016.0 0.0 0.0 18.0 0.0
23/02/18 08:10 18.0 91 16.5 0.0 0.0 0 0.0 0.0 1016.0 0.0 0.0 18.0 0.0
23/02/18 08:09 17.9 92 16.6 0.0 0.0 0 0.0 0.0 1016.0 0.0 0.0 17.9 0.0
23/02/18 08:08 17.8 92 16.5 0.0 0.0 0 0.0 0.0 1016.0 0.0 0.0 17.8 0.0
23/02/18 08:07 17.7 92 16.4 0.0 0.0 0 0.0 0.0 1016.0 0.0 0.0 17.7 0.0
23/02/18 08:06 17.6 92 16.3 0.0 0.0 0 0.0 0.0 1016.0 0.0 0.0 17.6 0.0
23/02/18 08:05 17.7 93 16.6 0.0 0.0 0 0.0 0.0 1016.0 0.0 0.0 17.7 0.0
23/02/18 08:04 17.6 93 16.5 0.0 0.0 0 0.0 0.0 1016.0 0.0 0.0 17.6 0.0
23/02/18 08:03 17.5 93 16.4 0.0 0.0 0 0.0 0.0 1016.0 0.0 0.0 17.5 0.0
23/02/18 08:02 17.4 92 16.1 0.0 0.0 0 0.0 0.0 1016.0 0.0 0.0 17.4 0.0
23/02/18 08:00 17.3 93 16.2 0.0 0.0 0 0.0 0.0 1016.0 0.0 0.0 17.3 0.0
23/02/18 07:59 17.4 93 16.3 0.0 0.0 0 0.0 0.0 1016.0 0.0 0.0 17.4 0.0
23/02/18 07:58 17.4 93 16.3 0.0 0.0 0 0.0 0.0 1016.0 0.0 0.0 17.4 0.0
23/02/18 07:57 17.4 93 16.3 0.0 0.0 0 0.0 0.0 1016.0 0.0 0.0 17.4 0.0
23/02/18 07:56 17.3 93 16.2 0.0 0.0 0 0.0 0.0 1016.0 0.0 0.0 17.3 0.0
23/02/18 07:55 17.3 93 16.2 0.0 0.0 0 0.0 0.0 1016.0 0.0 0.0 17.3 0.0
23/02/18 07:54 17.2 93 16.1 0.0 0.0 0 0.0 0.0 1016.0 0.0 0.0 17.2 0.0
23/02/18 07:53 17.1 93 16.0 0.0 0.0 0 0.0 0.0 1016.0 0.0 0.0 17.1 0.0
23/02/18 07:52 17.0 93 15.9 0.0 0.0 0 0.0 0.0 1017.0 0.0 0.0 17.0 0.0
23/02/18 07:51 16.9 94 15.9 0.0 0.0 0 0.0 0.0 1017.0 0.0 0.0 16.9 0.0
23/02/18 07:50 16.8 94 15.8 0.0 0.0 0 0.0 0.0 1017.0 0.0 0.0 16.8 0.0
23/02/18 07:49 16.8 94 15.8 0.0 0.0 0 0.0 0.0 1017.0 0.0 0.0 16.8 0.0
23/02/18 07:48 16.8 94 15.8 0.0 0.0 0 0.0 0.0 1017.0 0.0 0.0 16.8 0.0
23/02/18 07:47 16.8 94 15.8 0.0 0.0 0 0.0 0.0 1017.0 0.0 0.0 16.8 0.0
23/02/18 07:46 16.8 94 15.8 0.0 0.0 0 0.0 0.0 1017.0 0.0 0.0 16.8 0.0
23/02/18 07:45 16.7 94 15.7 0.0 0.0 0 0.0 0.0 1017.0 0.0 0.0 16.7 0.0
23/02/18 07:44 16.7 94 15.7 0.0 0.0 0 0.0 0.0 1017.0 0.0 0.0 16.7 0.0
23/02/18 07:43 16.8 94 15.8 0.0 0.0 0 0.0 0.0 1017.0 0.0 0.0 16.8 0.0
23/02/18 07:42 16.8 94 15.8 0.0 0.0 0 0.0 0.0 1017.0 0.0 0.0 16.8 0.0
23/02/18 07:41 16.9 94 15.9 0.0 0.0 0 0.0 0.0 1017.0 0.0 0.0 16.9 0.0
23/02/18 07:40 16.9 95 16.1 0.0 0.0 0 0.0 0.0 1017.0 0.0 0.0 16.9 0.0
23/02/18 07:39 16.9 95 16.1 0.0 0.0 0 0.0 0.0 1017.0 0.0 0.0 16.9 0.0
23/02/18 07:38 16.9 95 16.1 0.0 0.0 0 0.0 0.0 1017.0 0.0 0.0 16.9 0.0
23/02/18 07:37 16.9 95 16.1 0.0 0.0 0 0.0 0.0 1017.0 0.0 0.0 16.9 0.0
23/02/18 07:36 16.8 95 16.0 0.0 0.0 0 0.0 0.0 1017.0 0.0 0.0 16.8 0.0
23/02/18 07:35 16.7 95 15.9 0.0 0.0 0 0.0 0.0 1017.0 0.0 0.0 16.7 0.0
23/02/18 07:34 16.6 96 16.0 0.0 0.0 0 0.0 0.0 1017.0 0.0 0.0 16.6 0.0
23/02/18 07:33 16.4 95 15.6 0.0 0.0 0 0.0 0.0 1017.0 0.0 0.0 16.4 0.0
23/02/18 07:32 16.2 95 15.4 0.0 0.0 0 0.0 0.0 1017.0 0.0 0.0 16.2 0.0
23/02/18 07:31 16.2 95 15.4 0.0 0.0 0 0.0 0.0 1017.0 0.0 0.0 16.2 0.0
23/02/18 07:30 16.1 95 15.3 0.0 0.0 0 0.0 0.0 1017.0 0.0 0.0 16.1 0.0
23/02/18 07:29 16.1 96 15.5 0.0 0.0 0 0.0 0.0 1017.0 0.0 0.0 16.1 0.0
23/02/18 07:28 16.0 96 15.4 0.0 0.0 0 0.0 0.0 1017.0 0.0 0.0 16.0 0.0
23/02/18 07:27 15.9 96 15.3 0.0 0.0 0 0.0 0.0 1017.0 0.0 0.0 15.9 0.0
23/02/18 07:26 15.9 96 15.3 0.0 0.0 0 0.0 0.0 1017.0 0.0 0.0 15.9 0.0
23/02/18 07:25 15.9 96 15.3 0.0 0.0 0 0.0 0.0 1017.0 0.0 0.0 15.9 0.0
23/02/18 07:24 15.8 96 15.2 0.0 0.0 0 0.0 0.0 1017.0 0.0 0.0 15.8 0.0
23/02/18 07:23 15.8 96 15.2 0.0 0.0 0 0.0 0.0 1017.0 0.0 0.0 15.8 0.0
23/02/18 07:22 15.8 96 15.2 0.0 0.0 0 0.0 0.0 1017.0 0.0 0.0 15.8 0.0
23/02/18 07:21 15.7 96 15.1 0.0 0.0 0 0.0 0.0 1017.0 0.0 0.0 15.7 0.0
23/02/18 07:20 15.6 96 15.0 0.0 0.0 0 0.0 0.0 1017.0 0.0 0.0 15.6 0.0
23/02/18 07:19 15.6 96 15.0 0.0 0.0 0 0.0 0.0 1017.0 0.0 0.0 15.6 0.0
23/02/18 07:18 15.6 96 15.0 0.0 0.0 0 0.0 0.0 1017.0 0.0 0.0 15.6 0.0
23/02/18 07:17 15.5 96 14.9 0.0 0.0 0 0.0 0.0 1017.0 0.0 0.0 15.5 0.0
23/02/18 07:16 15.5 96 14.9 0.0 0.0 0 0.0 0.0 1017.0 0.0 0.0 15.5 0.0
23/02/18 07:15 15.5 96 14.9 0.0 0.0 0 0.0 0.0 1017.0 0.0 0.0 15.5 0.0
23/02/18 07:14 15.5 96 14.9 0.0 0.0 0 0.0 0.0 1017.0 0.0 0.0 15.5 0.0
23/02/18 07:13 15.4 96 14.8 0.0 0.0 0 0.0 0.0 1017.0 0.0 0.0 15.4 0.0
23/02/18 07:12 15.4 96 14.8 0.0 0.0 0 0.0 0.0 1017.0 0.0 0.0 15.4 0.0
23/02/18 07:11 15.4 96 14.8 0.0 0.0 0 0.0 0.0 1017.0 0.0 0.0 15.4 0.0
23/02/18 07:10 15.3 96 14.7 0.0 0.0 0 0.0 0.0 1017.0 0.0 0.0 15.3 0.0
23/02/18 07:09 15.3 96 14.7 0.0 0.0 0 0.0 0.0 1017.0 0.0 0.0 15.3 0.0
23/02/18 07:08 15.3 95 14.5 0.0 0.0 0 0.0 0.0 1017.0 0.0 0.0 15.3 0.0
23/02/18 07:07 15.2 95 14.4 0.0 0.0 0 0.0 0.0 1016.0 0.0 0.0 15.2 0.0
23/02/18 07:06 15.2 95 14.4 0.0 0.0 0 0.0 0.0 1016.0 0.0 0.0 15.2 0.0
23/02/18 07:05 15.2 96 14.6 0.0 0.0 0 0.0 0.0 1016.0 0.0 0.0 15.2 0.0
23/02/18 07:04 15.2 96 14.6 0.0 0.0 0 0.0 0.0 1016.0 0.0 0.0 15.2 0.0
23/02/18 07:03 15.2 96 14.6 0.0 0.0 0 0.0 0.0 1016.0 0.0 0.0 15.2 0.0
23/02/18 07:02 15.2 96 14.6 0.0 0.0 0 0.0 0.0 1016.0 0.0 0.0 15.2 0.0
23/02/18 06:33 15.3 95 14.5 0.0 0.0 0 0.0 0.0 1016.0 0.0 0.0 15.3 0.0
23/02/18 06:32 15.3 95 14.5 0.0 0.0 0 0.0 0.0 1016.0 0.0 0.0 15.3 0.0
23/02/18 06:31 15.3 95 14.5 0.0 0.0 0 0.0 0.0 1016.0 0.0 0.0 15.3 0.0
23/02/18 06:30 15.3 95 14.5 0.0 0.0 0 0.0 0.0 1016.0 0.0 0.0 15.3 0.0
23/02/18 06:29 15.3 95 14.5 0.0 0.0 0 0.0 0.0 1016.0 0.0 0.0 15.3 0.0
23/02/18 06:28 15.3 94 14.3 0.0 0.0 0 0.0 0.0 1016.0 0.0 0.0 15.3 0.0
23/02/18 06:27 15.3 94 14.3 0.0 0.0 0 0.0 0.0 1016.0 0.0 0.0 15.3 0.0
23/02/18 06:26 15.3 94 14.3 0.0 0.0 0 0.0 0.0 1016.0 0.0 0.0 15.3 0.0
23/02/18 06:25 15.3 94 14.3 0.0 0.0 0 0.0 0.0 1016.0 0.0 0.0 15.3 0.0
23/02/18 06:24 15.3 94 14.3 0.0 0.0 0 0.0 0.0 1016.0 0.0 0.0 15.3 0.0
23/02/18 06:23 15.4 94 14.4 0.0 0.0 0 0.0 0.0 1016.0 0.0 0.0 15.4 0.0
23/02/18 06:22 15.4 94 14.4 0.0 0.0 0 0.0 0.0 1016.0 0.0 0.0 15.4 0.0
23/02/18 06:21 15.4 94 14.4 0.0 0.0 0 0.0 0.0 1016.0 0.0 0.0 15.4 0.0
23/02/18 06:20 15.4 94 14.4 0.0 0.0 0 0.0 0.0 1016.0 0.0 0.0 15.4 0.0
23/02/18 06:19 15.4 94 14.4 0.0 0.0 0 0.0 0.0 1016.0 0.0 0.0 15.4 0.0
23/02/18 06:18 15.4 94 14.4 0.0 0.0 0 0.0 0.0 1016.0 0.0 0.0 15.4 0.0
23/02/18 06:17 15.4 94 14.4 0.0 0.0 0 0.0 0.0 1016.0 0.0 0.0 15.4 0.0
23/02/18 06:16 15.4 94 14.4 0.0 0.0 0 0.0 0.0 1016.0 0.0 0.0 15.4 0.0
23/02/18 06:15 15.4 94 14.4 0.0 0.0 0 0.0 0.0 1016.0 0.0 0.0 15.4 0.0
23/02/18 06:14 15.4 94 14.4 0.0 0.0 0 0.0 0.0 1016.0 0.0 0.0 15.4 0.0
23/02/18 06:13 15.4 94 14.4 0.0 0.0 0 0.0 0.0 1016.0 0.0 0.0 15.4 0.0
23/02/18 06:12 15.4 94 14.4 0.0 0.0 0 0.0 0.0 1016.0 0.0 0.0 15.4 0.0
23/02/18 06:11 15.4 94 14.4 0.0 0.0 0 0.0 0.0 1016.0 0.0 0.0 15.4 0.0
23/02/18 06:10 15.5 94 14.5 0.0 0.0 0 0.0 0.0 1016.0 0.0 0.0 15.5 0.0
23/02/18 06:09 15.5 94 14.5 0.0 0.0 0 0.0 0.0 1016.0 0.0 0.0 15.5 0.0
23/02/18 06:08 15.5 94 14.5 0.0 0.0 0 0.0 0.0 1016.0 0.0 0.0 15.5 0.0
23/02/18 06:07 15.5 94 14.5 0.0 0.0 0 0.0 0.0 1015.0 0.0 0.0 15.5 0.0
23/02/18 06:06 15.5 94 14.5 0.0 0.0 0 0.0 0.0 1015.0 0.0 0.0 15.5 0.0
23/02/18 06:05 15.5 94 14.5 0.0 0.0 0 0.0 0.0 1015.0 0.0 0.0 15.5 0.0
23/02/18 06:04 15.6 94 14.6 0.0 0.0 0 0.0 0.0 1015.0 0.0 0.0 15.6 0.0
23/02/18 06:03 15.6 94 14.6 0.0 0.0 0 0.0 0.0 1015.0 0.0 0.0 15.6 0.0
23/02/18 06:02 15.6 94 14.6 0.0 0.0 0 0.0 0.0 1015.0 0.0 0.0 15.6 0.0
23/02/18 06:00 15.6 94 14.6 0.0 0.0 0 0.0 0.0 1015.0 0.0 0.0 15.6 0.0
23/02/18 05:59 15.6 94 14.6 0.0 0.0 0 0.0 0.0 1015.0 0.0 0.0 15.6 0.0
23/02/18 05:58 15.6 93 14.5 0.0 0.0 0 0.0 0.0 1015.0 0.0 0.0 15.6 0.0
23/02/18 05:57 15.6 93 14.5 0.0 0.0 0 0.0 0.0 1015.0 0.0 0.0 15.6 0.0
23/02/18 05:56 15.6 93 14.5 0.0 0.0 0 0.0 0.0 1015.0 0.0 0.0 15.6 0.0
23/02/18 05:55 15.6 93 14.5 0.0 0.0 0 0.0 0.0 1015.0 0.0 0.0 15.6 0.0
23/02/18 05:54 15.7 93 14.6 0.0 0.0 0 0.0 0.0 1015.0 0.0 0.0 15.7 0.0
23/02/18 05:53 15.7 93 14.6 0.0 0.0 0 0.0 0.0 1015.0 0.0 0.0 15.7 0.0
23/02/18 05:52 15.7 93 14.6 0.0 0.0 0 0.0 0.0 1015.0 0.0 0.0 15.7 0.0
23/02/18 05:51 15.7 93 14.6 0.0 0.0 0 0.0 0.0 1015.0 0.0 0.0 15.7 0.0
23/02/18 05:50 15.8 93 14.7 0.0 0.0 0 0.0 0.0 1015.0 0.0 0.0 15.8 0.0
23/02/18 05:49 15.8 93 14.7 0.0 0.0 0 0.0 0.0 1015.0 0.0 0.0 15.8 0.0
23/02/18 05:48 15.8 93 14.7 0.0 0.0 0 0.0 0.0 1015.0 0.0 0.0 15.8 0.0
23/02/18 05:47 15.8 93 14.7 0.0 0.0 0 0.0 0.0 1015.0 0.0 0.0 15.8 0.0
23/02/18 05:46 15.8 93 14.7 0.0 0.0 0 0.0 0.0 1015.0 0.0 0.0 15.8 0.0
23/02/18 05:45 15.8 93 14.7 0.0 0.0 0 0.0 0.0 1015.0 0.0 0.0 15.8 0.0
23/02/18 05:44 15.8 93 14.7 0.0 0.0 0 0.0 0.0 1015.0 0.0 0.0 15.8 0.0
23/02/18 05:43 15.8 93 14.7 0.0 0.0 0 0.0 0.0 1015.0 0.0 0.0 15.8 0.0
23/02/18 05:42 15.8 93 14.7 0.0 0.0 0 0.0 0.0 1015.0 0.0 0.0 15.8 0.0
23/02/18 05:41 15.8 93 14.7 0.0 0.0 0 0.0 0.0 1015.0 0.0 0.0 15.8 0.0
23/02/18 05:40 15.8 93 14.7 0.0 0.0 0 0.0 0.0 1015.0 0.0 0.0 15.8 0.0
23/02/18 05:39 15.8 93 14.7 0.0 0.0 0 0.0 0.0 1015.0 0.0 0.0 15.8 0.0
23/02/18 05:38 15.8 93 14.7 0.0 0.0 0 0.0 0.0 1015.0 0.0 0.0 15.8 0.0
23/02/18 05:37 15.9 93 14.8 0.0 0.0 0 0.0 0.0 1015.0 0.0 0.0 15.9 0.0
23/02/18 05:36 15.8 93 14.7 0.0 0.0 0 0.0 0.0 1015.0 0.0 0.0 15.8 0.0
23/02/18 05:35 15.9 93 14.8 0.0 0.0 0 0.0 0.0 1015.0 0.0 0.0 15.9 0.0
23/02/18 05:34 15.9 93 14.8 0.0 0.0 0 0.0 0.0 1015.0 0.0 0.0 15.9 0.0
23/02/18 05:33 15.9 93 14.8 0.0 0.0 0 0.0 0.0 1015.0 0.0 0.0 15.9 0.0
23/02/18 05:32 15.9 93 14.8 0.0 0.0 0 0.0 0.0 1015.0 0.0 0.0 15.9 0.0
23/02/18 05:31 15.9 93 14.8 0.0 0.0 0 0.0 0.0 1015.0 0.0 0.0 15.9 0.0
23/02/18 05:30 15.9 93 14.8 0.0 0.0 0 0.0 0.0 1015.0 0.0 0.0 15.9 0.0
23/02/18 05:29 15.9 93 14.8 0.0 0.0 0 0.0 0.0 1015.0 0.0 0.0 15.9 0.0
23/02/18 05:28 15.9 93 14.8 0.0 0.0 0 0.0 0.0 1015.0 0.0 0.0 15.9 0.0
23/02/18 05:27 15.9 93 14.8 0.0 0.0 0 0.0 0.0 1015.0 0.0 0.0 15.9 0.0
23/02/18 05:26 15.9 93 14.8 0.0 0.0 0 0.0 0.0 1015.0 0.0 0.0 15.9 0.0
23/02/18 05:25 15.9 93 14.8 0.0 0.0 0 0.0 0.0 1015.0 0.0 0.0 15.9 0.0
23/02/18 05:24 15.9 93 14.8 0.0 0.0 0 0.0 0.0 1015.0 0.0 0.0 15.9 0.0
23/02/18 05:23 15.9 93 14.8 0.0 0.0 0 0.0 0.0 1015.0 0.0 0.0 15.9 0.0
23/02/18 05:22 15.9 93 14.8 0.0 0.0 0 0.0 0.0 1015.0 0.0 0.0 15.9 0.0
23/02/18 05:21 15.9 93 14.8 0.0 0.0 0 0.0 0.0 1015.0 0.0 0.0 15.9 0.0
23/02/18 05:20 15.9 93 14.8 0.0 0.0 0 0.0 0.0 1015.0 0.0 0.0 15.9 0.0
23/02/18 05:19 16.0 93 14.9 0.0 0.0 0 0.0 0.0 1015.0 0.0 0.0 16.0 0.0
23/02/18 05:18 15.9 93 14.8 0.0 0.0 0 0.0 0.0 1015.0 0.0 0.0 15.9 0.0
23/02/18 05:17 16.0 93 14.9 0.0 0.0 0 0.0 0.0 1015.0 0.0 0.0 16.0 0.0
23/02/18 05:16 16.0 93 14.9 0.0 0.0 0 0.0 0.0 1015.0 0.0 0.0 16.0 0.0
23/02/18 05:15 16.0 93 14.9 0.0 0.0 0 0.0 0.0 1015.0 0.0 0.0 16.0 0.0
23/02/18 05:14 16.0 93 14.9 0.0 0.0 0 0.0 0.0 1015.0 0.0 0.0 16.0 0.0
23/02/18 05:13 16.0 93 14.9 0.0 0.0 0 0.0 0.0 1015.0 0.0 0.0 16.0 0.0
23/02/18 05:12 16.0 93 14.9 0.0 0.0 0 0.0 0.0 1015.0 0.0 0.0 16.0 0.0
23/02/18 05:11 16.0 93 14.9 0.0 0.0 0 0.0 0.0 1015.0 0.0 0.0 16.0 0.0
23/02/18 05:10 16.0 92 14.7 0.0 0.0 0 0.0 0.0 1015.0 0.0 0.0 16.0 0.0
23/02/18 05:09 16.0 92 14.7 0.0 0.0 0 0.0 0.0 1015.0 0.0 0.0 16.0 0.0
23/02/18 05:08 16.0 92 14.7 0.0 0.0 0 0.0 0.0 1015.0 0.0 0.0 16.0 0.0
23/02/18 05:07 16.0 92 14.7 0.0 0.0 0 0.0 0.0 1015.0 0.0 0.0 16.0 0.0
23/02/18 05:06 16.0 92 14.7 0.0 0.0 0 0.0 0.0 1015.0 0.0 0.0 16.0 0.0
23/02/18 05:05 16.0 92 14.7 0.0 0.0 0 0.0 0.0 1015.0 0.0 0.0 16.0 0.0
23/02/18 05:04 16.0 92 14.7 0.0 0.0 0 0.0 0.0 1015.0 0.0 0.0 16.0 0.0
23/02/18 05:03 16.0 92 14.7 0.0 0.0 0 0.0 0.0 1015.0 0.0 0.0 16.0 0.0
23/02/18 04:38 16.1 92 14.8 0.0 0.0 0 0.0 0.0 1014.0 0.0 0.0 16.1 0.0
23/02/18 04:37 16.1 92 14.8 0.0 0.0 0 0.0 0.0 1015.0 0.0 0.0 16.1 0.0
23/02/18 04:36 16.1 92 14.8 0.0 0.0 0 0.0 0.0 1015.0 0.0 0.0 16.1 0.0
23/02/18 04:35 16.1 92 14.8 0.0 0.0 0 0.0 0.0 1015.0 0.0 0.0 16.1 0.0
23/02/18 04:34 16.1 92 14.8 0.0 0.0 0 0.0 0.0 1015.0 0.0 0.0 16.1 0.0
23/02/18 04:33 16.1 92 14.8 0.0 0.0 0 0.0 0.0 1015.0 0.0 0.0 16.1 0.0
23/02/18 04:32 16.1 92 14.8 0.0 0.0 0 0.0 0.0 1015.0 0.0 0.0 16.1 0.0
23/02/18 04:31 16.1 92 14.8 0.0 0.0 0 0.0 0.0 1015.0 0.0 0.0 16.1 0.0
23/02/18 04:30 16.1 92 14.8 0.0 0.0 0 0.0 0.0 1015.0 0.0 0.0 16.1 0.0
23/02/18 04:29 16.1 92 14.8 0.0 0.0 0 0.0 0.0 1015.0 0.0 0.0 16.1 0.0
23/02/18 04:28 16.1 92 14.8 0.0 0.0 0 0.0 0.0 1015.0 0.0 0.0 16.1 0.0
23/02/18 04:27 16.1 92 14.8 0.0 0.0 0 0.0 0.0 1015.0 0.0 0.0 16.1 0.0
23/02/18 04:26 16.1 92 14.8 0.0 0.0 0 0.0 0.0 1015.0 0.0 0.0 16.1 0.0
23/02/18 04:25 16.1 92 14.8 0.0 0.0 0 0.0 0.0 1015.0 0.0 0.0 16.1 0.0
23/02/18 04:24 16.1 92 14.8 0.0 0.0 0 0.0 0.0 1015.0 0.0 0.0 16.1 0.0
23/02/18 04:23 16.1 92 14.8 0.0 0.0 0 0.0 0.0 1015.0 0.0 0.0 16.1 0.0
23/02/18 04:22 16.1 92 14.8 0.0 0.0 0 0.0 0.0 1015.0 0.0 0.0 16.1 0.0
23/02/18 04:21 16.1 92 14.8 0.0 0.0 0 0.0 0.0 1015.0 0.0 0.0 16.1 0.0
23/02/18 04:20 16.2 92 14.9 0.0 0.0 0 0.0 0.0 1015.0 0.0 0.0 16.2 0.0
23/02/18 04:19 16.2 92 14.9 0.0 0.0 0 0.0 0.0 1015.0 0.0 0.0 16.2 0.0
23/02/18 04:18 16.2 92 14.9 0.0 0.0 0 0.0 0.0 1015.0 0.0 0.0 16.2 0.0
23/02/18 04:17 16.2 92 14.9 0.0 0.0 0 0.0 0.0 1015.0 0.0 0.0 16.2 0.0
23/02/18 04:16 16.2 92 14.9 0.0 0.0 0 0.0 0.0 1015.0 0.0 0.0 16.2 0.0
23/02/18 04:15 16.2 92 14.9 0.0 0.0 0 0.0 0.0 1015.0 0.0 0.0 16.2 0.0
23/02/18 04:14 16.2 92 14.9 0.0 0.0 0 0.0 0.0 1015.0 0.0 0.0 16.2 0.0
23/02/18 04:13 16.2 92 14.9 0.0 0.0 0 0.0 0.0 1015.0 0.0 0.0 16.2 0.0
23/02/18 04:12 16.2 92 14.9 0.0 0.0 0 0.0 0.0 1015.0 0.0 0.0 16.2 0.0
23/02/18 04:11 16.2 92 14.9 0.0 0.0 0 0.0 0.0 1015.0 0.0 0.0 16.2 0.0
23/02/18 04:10 16.2 92 14.9 0.0 0.0 0 0.0 0.0 1015.0 0.0 0.0 16.2 0.0
23/02/18 04:09 16.2 92 14.9 0.0 0.0 0 0.0 0.0 1015.0 0.0 0.0 16.2 0.0
23/02/18 04:08 16.2 92 14.9 0.0 0.0 0 0.0 0.0 1015.0 0.0 0.0 16.2 0.0
23/02/18 04:07 16.3 92 15.0 0.0 0.0 0 0.0 0.0 1015.0 0.0 0.0 16.3 0.0
23/02/18 04:06 16.3 92 15.0 0.0 0.0 0 0.0 0.0 1015.0 0.0 0.0 16.3 0.0
23/02/18 04:05 16.3 92 15.0 0.0 0.0 0 0.0 0.0 1015.0 0.0 0.0 16.3 0.0
23/02/18 04:04 16.3 92 15.0 0.0 0.0 0 0.0 0.0 1015.0 0.0 0.0 16.3 0.0
23/02/18 04:03 16.3 92 15.0 0.0 0.0 0 0.0 0.0 1015.0 0.0 0.0 16.3 0.0
23/02/18 04:00 16.3 92 15.0 0.0 0.0 0 0.0 0.0 1015.0 0.0 0.0 16.3 0.0
23/02/18 03:59 16.3 92 15.0 0.0 0.0 0 0.0 0.0 1015.0 0.0 0.0 16.3 0.0
23/02/18 03:58 16.3 92 15.0 0.0 0.0 0 0.0 0.0 1015.0 0.0 0.0 16.3 0.0
23/02/18 03:57 16.3 92 15.0 0.0 0.0 0 0.0 0.0 1015.0 0.0 0.0 16.3 0.0
23/02/18 03:56 16.3 92 15.0 0.0 0.0 0 0.0 0.0 1015.0 0.0 0.0 16.3 0.0
23/02/18 03:55 16.3 92 15.0 0.0 0.0 0 0.0 0.0 1015.0 0.0 0.0 16.3 0.0
23/02/18 03:54 16.3 92 15.0 0.0 0.0 0 0.0 0.0 1015.0 0.0 0.0 16.3 0.0
23/02/18 03:53 16.3 92 15.0 0.0 0.0 0 0.0 0.0 1015.0 0.0 0.0 16.3 0.0
23/02/18 03:52 16.3 92 15.0 0.0 0.0 0 0.0 0.0 1015.0 0.0 0.0 16.3 0.0
23/02/18 03:51 16.3 92 15.0 0.0 0.0 0 0.0 0.0 1015.0 0.0 0.0 16.3 0.0
23/02/18 03:50 16.3 92 15.0 0.0 0.0 0 0.0 0.0 1015.0 0.0 0.0 16.3 0.0
23/02/18 03:49 16.3 92 15.0 0.0 0.0 0 0.0 0.0 1015.0 0.0 0.0 16.3 0.0
23/02/18 03:48 16.3 92 15.0 0.0 0.0 0 0.0 0.0 1015.0 0.0 0.0 16.3 0.0
23/02/18 03:47 16.3 92 15.0 0.0 0.0 0 0.0 0.0 1015.0 0.0 0.0 16.3 0.0
23/02/18 03:46 16.3 92 15.0 0.0 0.0 0 0.0 0.0 1015.0 0.0 0.0 16.3 0.0
23/02/18 03:45 16.3 92 15.0 0.0 0.0 0 0.0 0.0 1015.0 0.0 0.0 16.3 0.0
23/02/18 03:44 16.3 92 15.0 0.0 0.0 0 0.0 0.0 1015.0 0.0 0.0 16.3 0.0
23/02/18 03:43 16.3 91 14.8 0.0 0.0 0 0.0 0.0 1015.0 0.0 0.0 16.3 0.0
23/02/18 03:42 16.3 91 14.8 0.0 0.0 0 0.0 0.0 1015.0 0.0 0.0 16.3 0.0
23/02/18 03:41 16.3 92 15.0 0.0 0.0 0 0.0 0.0 1015.0 0.0 0.0 16.3 0.0
23/02/18 03:40 16.3 92 15.0 0.0 0.0 0 0.0 0.0 1015.0 0.0 0.0 16.3 0.0
23/02/18 03:39 16.3 92 15.0 0.0 0.0 0 0.0 0.0 1015.0 0.0 0.0 16.3 0.0
23/02/18 03:38 16.3 92 15.0 0.0 0.0 0 0.0 0.0 1015.0 0.0 0.0 16.3 0.0
23/02/18 03:37 16.3 92 15.0 0.0 0.0 0 0.0 0.0 1015.0 0.0 0.0 16.3 0.0
23/02/18 03:36 16.3 91 14.8 0.0 0.0 0 0.0 0.0 1015.0 0.0 0.0 16.3 0.0
23/02/18 03:35 16.3 91 14.8 0.0 0.0 0 0.0 0.0 1015.0 0.0 0.0 16.3 0.0
23/02/18 03:34 16.3 91 14.8 0.0 0.0 0 0.0 0.0 1015.0 0.0 0.0 16.3 0.0
23/02/18 03:33 16.3 91 14.8 0.0 0.0 0 0.0 0.0 1015.0 0.0 0.0 16.3 0.0
23/02/18 03:32 16.3 91 14.8 0.0 0.0 0 0.0 0.0 1015.0 0.0 0.0 16.3 0.0
23/02/18 03:31 16.3 91 14.8 0.0 0.0 0 0.0 0.0 1015.0 0.0 0.0 16.3 0.0
23/02/18 03:30 16.3 91 14.8 0.0 0.0 0 0.0 0.0 1015.0 0.0 0.0 16.3 0.0
23/02/18 03:29 16.3 91 14.8 0.0 0.0 0 0.0 0.0 1015.0 0.0 0.0 16.3 0.0
23/02/18 03:28 16.3 91 14.8 0.0 0.0 0 0.0 0.0 1015.0 0.0 0.0 16.3 0.0
23/02/18 03:27 16.3 91 14.8 0.0 0.0 0 0.0 0.0 1015.0 0.0 0.0 16.3 0.0
23/02/18 03:26 16.3 91 14.8 0.0 0.0 0 0.0 0.0 1015.0 0.0 0.0 16.3 0.0
23/02/18 03:25 16.3 91 14.8 0.0 0.0 0 0.0 0.0 1015.0 0.0 0.0 16.3 0.0
23/02/18 03:24 16.3 91 14.8 0.0 0.0 0 0.0 0.0 1015.0 0.0 0.0 16.3 0.0
23/02/18 03:23 16.3 91 14.8 0.0 0.0 0 0.0 0.0 1015.0 0.0 0.0 16.3 0.0
23/02/18 03:22 16.3 91 14.8 0.0 0.0 0 0.0 0.0 1015.0 0.0 0.0 16.3 0.0
23/02/18 03:21 16.3 91 14.8 0.0 0.0 0 0.0 0.0 1015.0 0.0 0.0 16.3 0.0
23/02/18 03:20 16.3 91 14.8 0.0 0.0 0 0.0 0.0 1015.0 0.0 0.0 16.3 0.0
23/02/18 03:19 16.3 91 14.8 0.0 0.0 0 0.0 0.0 1015.0 0.0 0.0 16.3 0.0
23/02/18 03:18 16.3 91 14.8 0.0 0.0 0 0.0 0.0 1015.0 0.0 0.0 16.3 0.0
23/02/18 03:17 16.3 91 14.8 0.0 0.0 0 0.0 0.0 1015.0 0.0 0.0 16.3 0.0
23/02/18 03:16 16.3 91 14.8 0.0 0.0 0 0.0 0.0 1015.0 0.0 0.0 16.3 0.0
23/02/18 03:15 16.3 91 14.8 0.0 0.0 0 0.0 0.0 1015.0 0.0 0.0 16.3 0.0
23/02/18 03:14 16.3 91 14.8 0.0 0.0 0 0.0 0.0 1015.0 0.0 0.0 16.3 0.0
23/02/18 03:13 16.3 91 14.8 0.0 0.0 0 0.0 0.0 1015.0 0.0 0.0 16.3 0.0
23/02/18 03:12 16.3 91 14.8 0.0 0.0 0 0.0 0.0 1015.0 0.0 0.0 16.3 0.0
23/02/18 03:11 16.3 91 14.8 0.0 0.0 0 0.0 0.0 1015.0 0.0 0.0 16.3 0.0
23/02/18 03:10 16.3 91 14.8 0.0 0.0 0 0.0 0.0 1015.0 0.0 0.0 16.3 0.0
23/02/18 03:09 16.3 91 14.8 0.0 0.0 0 0.0 0.0 1015.0 0.0 0.0 16.3 0.0
23/02/18 03:08 16.3 91 14.8 0.0 0.0 0 0.0 0.0 1015.0 0.0 0.0 16.3 0.0
23/02/18 03:07 16.3 91 14.8 0.0 0.0 0 0.0 0.0 1016.0 0.0 0.0 16.3 0.0
23/02/18 03:06 16.3 91 14.8 0.0 0.0 0 0.0 0.0 1016.0 0.0 0.0 16.3 0.0
23/02/18 03:05 16.3 91 14.8 0.0 0.0 0 0.0 0.0 1016.0 0.0 0.0 16.3 0.0
23/02/18 03:04 16.3 91 14.8 0.0 0.0 0 0.0 0.0 1016.0 0.0 0.0 16.3 0.0
23/02/18 03:03 16.3 91 14.8 0.0 0.0 0 0.0 0.0 1016.0 0.0 0.0 16.3 0.0
23/02/18 02:59 16.3 92 15.0 0.0 0.0 0 0.0 0.0 1016.0 0.0 0.0 16.3 0.0
23/02/18 02:58 16.3 92 15.0 0.0 0.0 0 0.0 0.0 1016.0 0.0 0.0 16.3 0.0
23/02/18 02:57 16.3 92 15.0 0.0 0.0 0 0.0 0.0 1016.0 0.0 0.0 16.3 0.0
23/02/18 02:56 16.3 92 15.0 0.0 0.0 0 0.0 0.0 1016.0 0.0 0.0 16.3 0.0
23/02/18 02:55 16.3 92 15.0 0.0 0.0 0 0.0 0.0 1016.0 0.0 0.0 16.3 0.0
23/02/18 02:54 16.3 92 15.0 0.0 0.0 0 0.0 0.0 1016.0 0.0 0.0 16.3 0.0
23/02/18 02:53 16.3 92 15.0 0.0 0.0 0 0.0 0.0 1016.0 0.0 0.0 16.3 0.0
23/02/18 02:52 16.3 92 15.0 0.0 0.0 0 0.0 0.0 1016.0 0.0 0.0 16.3 0.0
23/02/18 02:51 16.3 92 15.0 0.0 0.0 0 0.0 0.0 1016.0 0.0 0.0 16.3 0.0
23/02/18 02:50 16.3 92 15.0 0.0 0.0 0 0.0 0.0 1016.0 0.0 0.0 16.3 0.0
23/02/18 02:49 16.3 92 15.0 0.0 0.0 0 0.0 0.0 1016.0 0.0 0.0 16.3 0.0
23/02/18 02:48 16.2 92 14.9 0.0 0.0 0 0.0 0.0 1016.0 0.0 0.0 16.2 0.0
23/02/18 02:47 16.2 92 14.9 0.0 0.0 0 0.0 0.0 1016.0 0.0 0.0 16.2 0.0
23/02/18 02:46 16.2 92 14.9 0.0 0.0 0 0.0 0.0 1016.0 0.0 0.0 16.2 0.0
23/02/18 02:45 16.2 92 14.9 0.0 0.0 0 0.0 0.0 1016.0 0.0 0.0 16.2 0.0
23/02/18 02:44 16.2 92 14.9 0.0 0.0 0 0.0 0.0 1016.0 0.0 0.0 16.2 0.0
23/02/18 02:43 16.2 92 14.9 0.0 0.0 0 0.0 0.0 1016.0 0.0 0.0 16.2 0.0
23/02/18 02:42 16.2 92 14.9 0.0 0.0 0 0.0 0.0 1016.0 0.0 0.0 16.2 0.0
23/02/18 02:41 16.2 92 14.9 0.0 0.0 0 0.0 0.0 1016.0 0.0 0.0 16.2 0.0
23/02/18 02:40 16.2 92 14.9 0.0 0.0 0 0.0 0.0 1016.0 0.0 0.0 16.2 0.0
23/02/18 02:39 16.2 92 14.9 0.0 0.0 0 0.0 0.0 1016.0 0.0 0.0 16.2 0.0
23/02/18 02:38 16.2 92 14.9 0.0 0.0 0 0.0 0.0 1016.0 0.0 0.0 16.2 0.0
23/02/18 02:37 16.2 92 14.9 0.0 0.0 0 0.0 0.0 1016.0 0.0 0.0 16.2 0.0
23/02/18 02:36 16.2 92 14.9 0.0 0.0 0 0.0 0.0 1016.0 0.0 0.0 16.2 0.0
23/02/18 02:35 16.2 92 14.9 0.0 0.0 0 0.0 0.0 1016.0 0.0 0.0 16.2 0.0
23/02/18 02:34 16.2 92 14.9 0.0 0.0 0 0.0 0.0 1016.0 0.0 0.0 16.2 0.0
23/02/18 02:33 16.1 92 14.8 0.0 0.0 0 0.0 0.0 1016.0 0.0 0.0 16.1 0.0
23/02/18 02:32 16.1 93 15.0 0.0 0.0 0 0.0 0.0 1016.0 0.0 0.0 16.1 0.0
23/02/18 02:31 16.1 93 15.0 0.0 0.0 0 0.0 0.0 1016.0 0.0 0.0 16.1 0.0
23/02/18 02:30 16.1 93 15.0 0.0 0.0 0 0.0 0.0 1016.0 0.0 0.0 16.1 0.0
23/02/18 02:29 16.1 93 15.0 0.0 0.0 0 0.0 0.0 1016.0 0.0 0.0 16.1 0.0
23/02/18 02:28 16.1 93 15.0 0.0 0.0 0 0.0 0.0 1016.0 0.0 0.0 16.1 0.0
23/02/18 02:27 16.1 93 15.0 0.0 0.0 0 0.0 0.0 1016.0 0.0 0.0 16.1 0.0
23/02/18 02:26 16.1 93 15.0 0.0 0.0 0 0.0 0.0 1016.0 0.0 0.0 16.1 0.0
23/02/18 02:25 16.1 93 15.0 0.0 0.0 0 0.0 0.0 1016.0 0.0 0.0 16.1 0.0
23/02/18 02:24 16.1 93 15.0 0.0 0.0 0 0.0 0.0 1016.0 0.0 0.0 16.1 0.0
23/02/18 02:23 16.1 93 15.0 0.0 0.0 0 0.0 0.0 1016.0 0.0 0.0 16.1 0.0
23/02/18 02:22 16.1 93 15.0 0.0 0.0 0 0.0 0.0 1016.0 0.0 0.0 16.1 0.0
23/02/18 02:21 16.0 93 14.9 0.0 0.0 0 0.0 0.0 1016.0 0.0 0.0 16.0 0.0
23/02/18 02:20 16.1 93 15.0 0.0 0.0 0 0.0 0.0 1016.0 0.0 0.0 16.1 0.0
23/02/18 02:19 16.1 93 15.0 0.0 0.0 0 0.0 0.0 1016.0 0.0 0.0 16.1 0.0
23/02/18 02:18 16.1 93 15.0 0.0 0.0 0 0.0 0.0 1016.0 0.0 0.0 16.1 0.0
23/02/18 02:17 16.1 93 15.0 0.0 0.0 0 0.0 0.0 1016.0 0.0 0.0 16.1 0.0
23/02/18 02:16 16.0 93 14.9 0.0 0.0 0 0.0 0.0 1016.0 0.0 0.0 16.0 0.0
23/02/18 02:15 16.0 93 14.9 0.0 0.0 0 0.0 0.0 1016.0 0.0 0.0 16.0 0.0
23/02/18 02:14 16.0 93 14.9 0.0 0.0 0 0.0 0.0 1016.0 0.0 0.0 16.0 0.0
23/02/18 02:13 16.0 93 14.9 0.0 0.0 0 0.0 0.0 1016.0 0.0 0.0 16.0 0.0
23/02/18 02:12 16.0 93 14.9 0.0 0.0 0 0.0 0.0 1016.0 0.0 0.0 16.0 0.0
23/02/18 02:11 16.0 93 14.9 0.0 0.0 0 0.0 0.0 1016.0 0.0 0.0 16.0 0.0
23/02/18 02:10 16.0 93 14.9 0.0 0.0 0 0.0 0.0 1016.0 0.0 0.0 16.0 0.0
23/02/18 02:09 16.0 93 14.9 0.0 0.0 0 0.0 0.0 1016.0 0.0 0.0 16.0 0.0
23/02/18 02:08 16.0 93 14.9 0.0 0.0 0 0.0 0.0 1016.0 0.0 0.0 16.0 0.0
23/02/18 02:07 16.0 93 14.9 0.0 0.0 0 0.0 0.0 1016.0 0.0 0.0 16.0 0.0
23/02/18 02:06 16.0 93 14.9 0.0 0.0 0 0.0 0.0 1016.0 0.0 0.0 16.0 0.0
23/02/18 02:05 16.0 93 14.9 0.0 0.0 0 0.0 0.0 1016.0 0.0 0.0 16.0 0.0
23/02/18 02:04 16.0 93 14.9 0.0 0.0 0 0.0 0.0 1016.0 0.0 0.0 16.0 0.0
23/02/18 02:03 16.0 93 14.9 0.0 0.0 0 0.0 0.0 1016.0 0.0 0.0 16.0 0.0
23/02/18 02:00 16.0 93 14.9 0.0 0.0 0 0.0 0.0 1016.0 0.0 0.0 16.0 0.0
23/02/18 01:59 16.0 93 14.9 0.0 0.0 0 0.0 0.0 1016.0 0.0 0.0 16.0 0.0
23/02/18 01:58 16.0 93 14.9 0.0 0.0 0 0.0 0.0 1016.0 0.0 0.0 16.0 0.0
23/02/18 01:57 15.9 94 14.9 0.0 0.0 0 0.0 0.0 1016.0 0.0 0.0 15.9 0.0
23/02/18 01:56 15.9 94 14.9 0.0 0.0 0 0.0 0.0 1016.0 0.0 0.0 15.9 0.0
23/02/18 01:55 15.9 94 14.9 0.0 0.0 0 0.0 0.0 1016.0 0.0 0.0 15.9 0.0
23/02/18 01:54 15.9 94 14.9 0.0 0.0 0 0.0 0.0 1016.0 0.0 0.0 15.9 0.0
23/02/18 01:53 15.9 94 14.9 0.0 0.0 0 0.0 0.0 1016.0 0.0 0.0 15.9 0.0
23/02/18 01:52 15.9 94 14.9 0.0 0.0 0 0.0 0.0 1016.0 0.0 0.0 15.9 0.0
23/02/18 01:51 15.9 94 14.9 0.0 0.0 0 0.0 0.0 1016.0 0.0 0.0 15.9 0.0
23/02/18 01:50 15.9 94 14.9 0.0 0.0 0 0.0 0.0 1016.0 0.0 0.0 15.9 0.0
23/02/18 01:49 15.9 94 14.9 0.0 0.0 0 0.0 0.0 1016.0 0.0 0.0 15.9 0.0
23/02/18 01:48 15.9 94 14.9 0.0 0.0 0 0.0 0.0 1016.0 0.0 0.0 15.9 0.0
23/02/18 01:47 15.9 94 14.9 0.0 0.0 0 0.0 0.0 1016.0 0.0 0.0 15.9 0.0
23/02/18 01:46 15.9 94 14.9 0.0 0.0 0 0.0 0.0 1016.0 0.0 0.0 15.9 0.0
23/02/18 01:45 15.8 94 14.8 0.0 0.0 0 0.0 0.0 1016.0 0.0 0.0 15.8 0.0
23/02/18 01:44 15.9 94 14.9 0.0 0.0 0 0.0 0.0 1016.0 0.0 0.0 15.9 0.0
23/02/18 01:43 15.9 94 14.9 0.0 0.0 0 0.0 0.0 1016.0 0.0 0.0 15.9 0.0
23/02/18 01:42 15.8 94 14.8 0.0 0.0 0 0.0 0.0 1016.0 0.0 0.0 15.8 0.0
23/02/18 01:41 15.8 94 14.8 0.0 0.0 0 0.0 0.0 1016.0 0.0 0.0 15.8 0.0
23/02/18 01:40 15.8 94 14.8 0.0 0.0 0 0.0 0.0 1016.0 0.0 0.0 15.8 0.0
23/02/18 01:39 15.8 94 14.8 0.0 0.0 0 0.0 0.0 1016.0 0.0 0.0 15.8 0.0
23/02/18 01:38 15.8 94 14.8 0.0 0.0 0 0.0 0.0 1016.0 0.0 0.0 15.8 0.0
23/02/18 01:37 15.8 94 14.8 0.0 0.0 0 0.0 0.0 1016.0 0.0 0.0 15.8 0.0
23/02/18 01:36 15.8 94 14.8 0.0 0.0 0 0.0 0.0 1016.0 0.0 0.0 15.8 0.0
23/02/18 01:35 15.8 94 14.8 0.0 0.0 0 0.0 0.0 1016.0 0.0 0.0 15.8 0.0
23/02/18 01:34 15.8 94 14.8 0.0 0.0 0 0.0 0.0 1016.0 0.0 0.0 15.8 0.0
23/02/18 01:33 15.8 94 14.8 0.0 0.0 0 0.0 0.0 1016.0 0.0 0.0 15.8 0.0
23/02/18 01:32 15.7 94 14.7 0.0 0.0 0 0.0 0.0 1016.0 0.0 0.0 15.7 0.0
23/02/18 01:31 15.7 94 14.7 0.0 0.0 0 0.0 0.0 1016.0 0.0 0.0 15.7 0.0
23/02/18 01:30 15.7 94 14.7 0.0 0.0 0 0.0 0.0 1016.0 0.0 0.0 15.7 0.0
23/02/18 01:29 15.7 94 14.7 0.0 0.0 0 0.0 0.0 1016.0 0.0 0.0 15.7 0.0
23/02/18 01:28 15.7 94 14.7 0.0 0.0 0 0.0 0.0 1016.0 0.0 0.0 15.7 0.0
23/02/18 01:27 15.7 94 14.7 0.0 0.0 0 0.0 0.0 1016.0 0.0 0.0 15.7 0.0
23/02/18 01:26 15.7 94 14.7 0.0 0.0 0 0.0 0.0 1016.0 0.0 0.0 15.7 0.0
23/02/18 01:25 15.6 94 14.6 0.0 0.0 0 0.0 0.0 1016.0 0.0 0.0 15.6 0.0
23/02/18 01:24 15.6 94 14.6 0.0 0.0 0 0.0 0.0 1016.0 0.0 0.0 15.6 0.0
23/02/18 01:23 15.6 94 14.6 0.0 0.0 0 0.0 0.0 1016.0 0.0 0.0 15.6 0.0
23/02/18 01:22 15.6 94 14.6 0.0 0.0 0 0.0 0.0 1017.0 0.0 0.0 15.6 0.0
23/02/18 01:21 15.6 94 14.6 0.0 0.0 0 0.0 0.0 1017.0 0.0 0.0 15.6 0.0
23/02/18 01:20 15.6 94 14.6 0.0 0.0 0 0.0 0.0 1017.0 0.0 0.0 15.6 0.0
23/02/18 01:19 15.6 94 14.6 0.0 0.0 0 0.0 0.0 1017.0 0.0 0.0 15.6 0.0
23/02/18 01:18 15.6 94 14.6 0.0 0.0 0 0.0 0.0 1017.0 0.0 0.0 15.6 0.0
23/02/18 01:17 15.6 94 14.6 0.0 0.0 0 0.0 0.0 1017.0 0.0 0.0 15.6 0.0
23/02/18 01:16 15.5 94 14.5 0.0 0.0 0 0.0 0.0 1017.0 0.0 0.0 15.5 0.0
23/02/18 01:15 15.5 94 14.5 0.0 0.0 0 0.0 0.0 1017.0 0.0 0.0 15.5 0.0
23/02/18 01:14 15.5 94 14.5 0.0 0.0 0 0.0 0.0 1017.0 0.0 0.0 15.5 0.0
23/02/18 01:13 15.5 94 14.5 0.0 0.0 0 0.0 0.0 1017.0 0.0 0.0 15.5 0.0
23/02/18 01:12 15.5 94 14.5 0.0 0.0 0 0.0 0.0 1017.0 0.0 0.0 15.5 0.0
23/02/18 01:11 15.5 94 14.5 0.0 0.0 0 0.0 0.0 1017.0 0.0 0.0 15.5 0.0
23/02/18 01:10 15.5 94 14.5 0.0 0.0 0 0.0 0.0 1017.0 0.0 0.0 15.5 0.0
23/02/18 01:09 15.5 94 14.5 0.0 0.0 0 0.0 0.0 1017.0 0.0 0.0 15.5 0.0
23/02/18 01:08 15.4 94 14.4 0.0 0.0 0 0.0 0.0 1017.0 0.0 0.0 15.4 0.0
23/02/18 01:07 15.4 94 14.4 0.0 0.0 0 0.0 0.0 1017.0 0.0 0.0 15.4 0.0
23/02/18 01:06 15.4 94 14.4 0.0 0.0 0 0.0 0.0 1017.0 0.0 0.0 15.4 0.0
23/02/18 01:05 15.4 94 14.4 0.0 0.0 0 0.0 0.0 1017.0 0.0 0.0 15.4 0.0
23/02/18 01:04 15.4 94 14.4 0.0 0.0 0 0.0 0.0 1017.0 0.0 0.0 15.4 0.0
23/02/18 01:03 15.4 94 14.4 0.0 0.0 0 0.0 0.0 1017.0 0.0 0.0 15.4 0.0
23/02/18 01:00 15.4 94 14.4 0.0 0.0 0 0.0 0.0 1017.0 0.0 0.0 15.4 0.0
23/02/18 00:59 15.4 94 14.4 0.0 0.0 0 0.0 0.0 1017.0 0.0 0.0 15.4 0.0
23/02/18 00:58 15.4 94 14.4 0.0 0.0 0 0.0 0.0 1017.0 0.0 0.0 15.4 0.0
23/02/18 00:57 15.4 94 14.4 0.0 0.0 0 0.0 0.0 1017.0 0.0 0.0 15.4 0.0
23/02/18 00:56 15.3 94 14.3 0.0 0.0 0 0.0 0.0 1017.0 0.0 0.0 15.3 0.0
23/02/18 00:55 15.4 94 14.4 0.0 0.0 0 0.0 0.0 1017.0 0.0 0.0 15.4 0.0
23/02/18 00:54 15.3 94 14.3 0.0 0.0 0 0.0 0.0 1017.0 0.0 0.0 15.3 0.0
23/02/18 00:53 15.3 94 14.3 0.0 0.0 0 0.0 0.0 1017.0 0.0 0.0 15.3 0.0
23/02/18 00:52 15.3 94 14.3 0.0 0.0 0 0.0 0.0 1017.0 0.0 0.0 15.3 0.0
23/02/18 00:51 15.4 94 14.4 0.0 0.0 0 0.0 0.0 1017.0 0.0 0.0 15.4 0.0
23/02/18 00:50 15.3 94 14.3 0.0 0.0 0 0.0 0.0 1017.0 0.0 0.0 15.3 0.0
23/02/18 00:49 15.3 94 14.3 0.0 0.0 0 0.0 0.0 1017.0 0.0 0.0 15.3 0.0
23/02/18 00:48 15.3 94 14.3 0.0 0.0 0 0.0 0.0 1017.0 0.0 0.0 15.3 0.0
23/02/18 00:47 15.4 94 14.4 0.0 0.0 0 0.0 0.0 1017.0 0.0 0.0 15.4 0.0
23/02/18 00:46 15.4 94 14.4 0.0 0.0 0 0.0 0.0 1017.0 0.0 0.0 15.4 0.0
23/02/18 00:45 15.4 94 14.4 0.0 0.0 0 0.0 0.0 1017.0 0.0 0.0 15.4 0.0
23/02/18 00:44 15.4 94 14.4 0.0 0.0 0 0.0 0.0 1017.0 0.0 0.0 15.4 0.0
23/02/18 00:43 15.4 94 14.4 0.0 0.0 0 0.0 0.0 1017.0 0.0 0.0 15.4 0.0
23/02/18 00:42 15.4 94 14.4 0.0 0.0 0 0.0 0.0 1017.0 0.0 0.0 15.4 0.0
23/02/18 00:41 15.4 94 14.4 0.0 0.0 0 0.0 0.0 1017.0 0.0 0.0 15.4 0.0
23/02/18 00:40 15.4 94 14.4 0.0 0.0 0 0.0 0.0 1017.0 0.0 0.0 15.4 0.0
23/02/18 00:39 15.4 94 14.4 0.0 0.0 0 0.0 0.0 1017.0 0.0 0.0 15.4 0.0
23/02/18 00:38 15.4 94 14.4 0.0 0.0 0 0.0 0.0 1017.0 0.0 0.0 15.4 0.0
23/02/18 00:37 15.5 94 14.5 0.0 0.0 0 0.0 0.0 1017.0 0.0 0.0 15.5 0.0
23/02/18 00:36 15.5 94 14.5 0.0 0.0 0 0.0 0.0 1017.0 0.0 0.0 15.5 0.0
23/02/18 00:35 15.5 94 14.5 0.0 0.0 0 0.0 0.0 1017.0 0.0 0.0 15.5 0.0
23/02/18 00:34 15.5 94 14.5 0.0 0.0 0 0.0 0.0 1017.0 0.0 0.0 15.5 0.0
23/02/18 00:33 15.5 94 14.5 0.0 0.0 0 0.0 0.0 1017.0 0.0 0.0 15.5 0.0
23/02/18 00:32 15.5 93 14.4 0.0 0.0 0 0.0 0.0 1017.0 0.0 0.0 15.5 0.0
23/02/18 00:31 15.5 93 14.4 0.0 0.0 0 0.0 0.0 1017.0 0.0 0.0 15.5 0.0
23/02/18 00:30 15.5 93 14.4 0.0 0.0 0 0.0 0.0 1017.0 0.0 0.0 15.5 0.0
23/02/18 00:29 15.5 93 14.4 0.0 0.0 0 0.0 0.0 1017.0 0.0 0.0 15.5 0.0
23/02/18 00:28 15.5 93 14.4 0.0 0.0 0 0.0 0.0 1017.0 0.0 0.0 15.5 0.0
23/02/18 00:27 15.5 93 14.4 0.0 0.0 0 0.0 0.0 1017.0 0.0 0.0 15.5 0.0
23/02/18 00:26 15.5 93 14.4 0.0 0.0 0 0.0 0.0 1017.0 0.0 0.0 15.5 0.0
23/02/18 00:25 15.5 93 14.4 0.0 0.0 0 0.0 0.0 1017.0 0.0 0.0 15.5 0.0
23/02/18 00:24 15.6 93 14.5 0.0 0.0 0 0.0 0.0 1017.0 0.0 0.0 15.6 0.0
23/02/18 00:23 15.6 93 14.5 0.0 0.0 0 0.0 0.0 1017.0 0.0 0.0 15.6 0.0
23/02/18 00:22 15.6 93 14.5 0.0 0.0 0 0.0 0.0 1017.0 0.0 0.0 15.6 0.0
23/02/18 00:21 15.6 93 14.5 0.0 0.0 0 0.0 0.0 1017.0 0.0 0.0 15.6 0.0
23/02/18 00:20 15.6 93 14.5 0.0 0.0 0 0.0 0.0 1017.0 0.0 0.0 15.6 0.0
23/02/18 00:19 15.6 93 14.5 0.0 0.0 0 0.0 0.0 1017.0 0.0 0.0 15.6 0.0
23/02/18 00:18 15.6 93 14.5 0.0 0.0 0 0.0 0.0 1017.0 0.0 0.0 15.6 0.0
23/02/18 00:17 15.6 93 14.5 0.0 0.0 0 0.0 0.0 1017.0 0.0 0.0 15.6 0.0
23/02/18 00:16 15.6 93 14.5 0.0 0.0 0 0.0 0.0 1017.0 0.0 0.0 15.6 0.0
23/02/18 00:15 15.7 93 14.6 0.0 0.0 0 0.0 0.0 1017.0 0.0 0.0 15.7 0.0
23/02/18 00:14 15.7 92 14.4 0.0 0.0 0 0.0 0.0 1017.0 0.0 0.0 15.7 0.0
23/02/18 00:13 15.6 92 14.3 0.0 0.0 0 0.0 0.0 1017.0 0.0 0.0 15.6 0.0
23/02/18 00:12 15.7 92 14.4 0.0 0.0 0 0.0 0.0 1017.0 0.0 0.0 15.7 0.0
23/02/18 00:11 15.7 92 14.4 0.0 0.0 0 0.0 0.0 1017.0 0.0 0.0 15.7 0.0
23/02/18 00:10 15.7 92 14.4 0.0 0.0 0 0.0 0.0 1017.0 0.0 0.0 15.7 0.0
23/02/18 00:09 15.7 92 14.4 0.0 0.0 0 0.0 0.0 1017.0 0.0 0.0 15.7 0.0
23/02/18 00:08 15.7 92 14.4 0.0 0.0 0 0.0 0.0 1017.0 0.0 0.0 15.7 0.0
23/02/18 00:07 15.8 92 14.5 0.0 0.0 0 0.0 0.0 1017.0 0.0 0.0 15.8 0.0
23/02/18 00:06 15.7 92 14.4 0.0 0.0 0 0.0 0.0 1017.0 0.0 0.0 15.7 0.0
23/02/18 00:05 15.7 92 14.4 0.0 0.0 0 0.0 0.0 1017.0 0.0 0.0 15.7 0.0
23/02/18 00:04 15.7 92 14.4 0.0 0.0 0 0.0 0.0 1017.0 0.0 0.0 15.7 0.0
23/02/18 00:03 15.7 93 14.6 0.0 0.0 0 0.0 0.0 1017.0 0.0 0.0 15.7 0.0
23/02/18 00:00 15.8 92 14.5 0.0 0.0 0 0.0 0.0 1017.0 0.0 0.0 15.8 0.0
  Back to Top


This site is NOT a professional weather site.
Never base important decisions on this or any weather information obtained from the Internet.
Website Supported by Cumulus. Contact me Admin